createdAt,value
2018-04-02T00:00:17.949Z,35.80
2018-04-02T00:01:17.956Z,35.71
2018-04-02T00:02:17.956Z,35.52
2018-04-02T00:03:17.962Z,35.80
2018-04-02T00:04:17.966Z,35.89
2018-04-02T00:05:17.970Z,35.89
2018-04-02T00:06:17.975Z,35.99
2018-04-02T00:07:17.978Z,35.89
2018-04-02T00:08:17.984Z,36.93
2018-04-02T00:09:17.986Z,37.78
2018-04-02T00:10:17.991Z,38.73
2018-04-02T00:11:17.995Z,38.16
2018-04-02T00:12:18.001Z,35.71
2018-04-02T00:13:18.008Z,35.04
2018-04-02T00:14:18.008Z,35.61
2018-04-02T00:15:18.012Z,36.83
2018-04-02T00:16:18.058Z,36.74
2018-04-02T00:17:18.022Z,36.83
2018-04-02T00:18:18.024Z,37.69
2018-04-02T00:19:18.028Z,37.78
2018-04-02T00:20:18.042Z,38.63
2018-04-02T00:21:18.035Z,38.92
2018-04-02T00:22:18.042Z,38.35
2018-04-02T00:23:18.047Z,37.97
2018-04-02T00:24:18.052Z,37.97
2018-04-02T00:25:18.066Z,37.88
2018-04-02T00:26:18.060Z,38.26
2018-04-02T00:27:18.064Z,38.92
2018-04-02T00:28:18.068Z,38.44
2018-04-02T00:29:18.070Z,38.92
2018-04-02T00:30:18.077Z,38.92
2018-04-02T00:31:18.078Z,38.35
2018-04-02T00:32:18.095Z,38.35
2018-04-02T00:33:18.089Z,38.26
2018-04-02T00:34:18.094Z,37.97
2018-04-02T00:35:18.097Z,37.69
2018-04-02T00:36:18.102Z,37.31
2018-04-02T00:37:18.105Z,37.40
2018-04-02T00:38:18.111Z,37.59
2018-04-02T00:39:18.113Z,37.40
2018-04-02T00:40:18.118Z,37.50
2018-04-02T00:41:18.123Z,36.46
2018-04-02T00:42:18.124Z,36.08
2018-04-02T00:43:18.130Z,35.71
2018-04-02T00:44:18.134Z,35.80
2018-04-02T00:45:18.138Z,35.71
2018-04-02T00:46:18.143Z,35.99
2018-04-02T00:47:18.147Z,36.18
2018-04-02T00:48:18.149Z,36.27
2018-04-02T00:49:18.153Z,36.74
2018-04-02T00:50:18.164Z,37.59
2018-04-02T00:51:18.163Z,37.69
2018-04-02T00:52:18.167Z,37.40
2018-04-02T00:53:18.170Z,37.31
2018-04-02T00:54:18.174Z,37.50
2018-04-02T00:55:18.180Z,37.40
2018-04-02T00:56:18.183Z,37.69
2018-04-02T00:57:18.188Z,37.97
2018-04-02T00:58:18.192Z,36.74
2018-04-02T00:59:18.194Z,36.08
2018-04-02T01:00:18.198Z,35.80
2018-04-02T01:01:18.202Z,36.36
2018-04-02T01:02:18.207Z,37.02
2018-04-02T01:03:18.215Z,37.12
2018-04-02T01:04:18.215Z,37.02
2018-04-02T01:05:18.252Z,36.55
2018-04-02T01:06:18.222Z,36.65
2018-04-02T01:07:18.225Z,36.55
2018-04-02T01:08:18.230Z,36.65
2018-04-02T01:09:18.233Z,36.65
2018-04-02T01:10:18.237Z,36.55
2018-04-02T01:11:18.252Z,35.89
2018-04-02T01:12:18.248Z,35.80
2018-04-02T01:13:18.253Z,35.04
2018-04-02T01:14:18.256Z,34.66
2018-04-02T01:15:18.259Z,34.57
2018-04-02T01:16:18.261Z,35.33
2018-04-02T01:17:18.264Z,34.76
2018-04-02T01:18:18.266Z,33.62
2018-04-02T01:19:18.272Z,32.30
2018-04-02T01:20:18.336Z,31.93
2018-04-02T01:21:18.281Z,31.36
2018-04-02T01:22:18.286Z,31.17
2018-04-02T01:23:18.288Z,31.45
2018-04-02T01:24:18.290Z,31.74
2018-04-02T01:25:18.292Z,31.45
2018-04-02T01:26:18.298Z,31.83
2018-04-02T01:27:18.301Z,30.98
2018-04-02T01:28:18.304Z,30.88
2018-04-02T01:29:18.310Z,31.45
2018-04-02T01:30:18.311Z,31.45
2018-04-02T01:31:18.317Z,30.98
2018-04-02T01:32:18.320Z,30.98
2018-04-02T01:33:18.323Z,31.26
2018-04-02T01:34:18.327Z,31.93
2018-04-02T01:35:18.332Z,31.45
2018-04-02T01:36:18.338Z,30.79
2018-04-02T01:37:18.340Z,30.69
2018-04-02T01:38:18.344Z,30.04
2018-04-02T01:39:18.349Z,29.28
2018-04-02T01:40:18.356Z,29.38
2018-04-02T01:41:18.356Z,28.71
2018-04-02T01:42:18.358Z,29.47
2018-04-02T01:43:18.365Z,30.04
2018-04-02T01:44:18.367Z,29.75
2018-04-02T01:45:18.369Z,29.57
2018-04-02T01:46:18.374Z,29.57
2018-04-02T01:47:18.378Z,28.71
2018-04-02T01:48:18.382Z,27.20
2018-04-02T01:49:18.386Z,26.45
2018-04-02T01:50:18.389Z,25.98
2018-04-02T01:51:18.394Z,24.65
2018-04-02T01:52:18.398Z,23.14
2018-04-02T01:53:18.400Z,22.48
2018-04-02T01:54:18.408Z,23.43
2018-04-02T01:55:18.411Z,24.18
2018-04-02T01:56:18.414Z,24.65
2018-04-02T01:57:18.420Z,24.65
2018-04-02T01:58:18.439Z,23.99
2018-04-02T01:59:18.426Z,23.80
2018-04-02T02:00:18.432Z,23.71
2018-04-02T02:01:18.433Z,24.27
2018-04-02T02:02:18.437Z,24.65
2018-04-02T02:03:18.442Z,24.08
2018-04-02T02:04:18.448Z,24.08
2018-04-02T02:05:18.451Z,23.24
2018-04-02T02:06:18.455Z,23.52
2018-04-02T02:07:18.460Z,22.48
2018-04-02T02:08:18.463Z,22.67
2018-04-02T02:09:18.467Z,23.71
2018-04-02T02:10:18.471Z,23.71
2018-04-02T02:11:18.474Z,23.99
2018-04-02T02:12:18.479Z,23.80
2018-04-02T02:13:18.485Z,23.43
2018-04-02T02:14:18.487Z,23.14
2018-04-02T02:15:18.493Z,22.29
2018-04-02T02:16:18.499Z,22.76
2018-04-02T02:17:18.499Z,22.86
2018-04-02T02:18:18.505Z,22.29
2018-04-02T02:19:18.508Z,22.10
2018-04-02T02:20:18.513Z,22.38
2018-04-02T02:21:18.517Z,21.82
2018-04-02T02:22:18.519Z,22.29
2018-04-02T02:23:18.537Z,23.14
2018-04-02T02:24:18.529Z,23.52
2018-04-02T02:25:18.532Z,23.90
2018-04-02T02:26:18.539Z,23.43
2018-04-02T02:27:18.541Z,22.29
2018-04-02T02:28:18.544Z,23.05
2018-04-02T02:29:18.549Z,23.90
2018-04-02T02:30:18.555Z,24.65
2018-04-02T02:31:18.559Z,25.12
2018-04-02T02:32:18.564Z,25.50
2018-04-02T02:33:18.572Z,25.31
2018-04-02T02:34:18.572Z,24.84
2018-04-02T02:35:18.576Z,23.71
2018-04-02T02:36:18.581Z,24.84
2018-04-02T02:37:18.585Z,24.84
2018-04-02T02:38:18.596Z,23.43
2018-04-02T02:39:18.593Z,23.14
2018-04-02T02:40:18.598Z,22.39
2018-04-02T02:41:18.601Z,21.36
2018-04-02T02:42:18.611Z,21.26
2018-04-02T02:43:18.629Z,21.36
2018-04-02T02:44:18.618Z,21.64
2018-04-02T02:45:18.619Z,22.49
2018-04-02T02:46:18.623Z,22.30
2018-04-02T02:47:18.629Z,22.87
2018-04-02T02:48:18.633Z,23.44
2018-04-02T02:49:18.638Z,23.34
2018-04-02T02:50:18.641Z,22.58
2018-04-02T02:51:18.646Z,23.53
2018-04-02T02:52:18.650Z,24.57
2018-04-02T02:53:18.654Z,23.44
2018-04-02T02:54:18.659Z,22.39
2018-04-02T02:55:18.670Z,21.64
2018-04-02T02:56:18.669Z,21.92
2018-04-02T02:57:18.677Z,22.77
2018-04-02T02:58:18.679Z,24.66
2018-04-02T02:59:18.682Z,25.51
2018-04-02T03:00:18.687Z,25.99
2018-04-02T03:01:18.690Z,26.18
2018-04-02T03:02:18.697Z,26.08
2018-04-02T03:03:18.706Z,25.99
2018-04-02T03:04:18.704Z,23.44
2018-04-02T03:05:18.709Z,22.20
2018-04-02T03:06:18.715Z,21.73
2018-04-02T03:07:18.718Z,21.36
2018-04-02T03:08:18.725Z,21.17
2018-04-02T03:09:18.727Z,21.45
2018-04-02T03:10:18.731Z,21.64
2018-04-02T03:11:18.737Z,22.39
2018-04-02T03:12:18.741Z,22.20
2018-04-02T03:13:18.745Z,21.55
2018-04-02T03:14:18.751Z,21.55
2018-04-02T03:15:18.754Z,21.55
2018-04-02T03:16:18.760Z,20.98
2018-04-02T03:17:18.763Z,19.65
2018-04-02T03:18:18.769Z,19.65
2018-04-02T03:19:18.773Z,20.13
2018-04-02T03:20:18.780Z,19.18
2018-04-02T03:21:18.785Z,18.80
2018-04-02T03:22:18.788Z,18.71
2018-04-02T03:23:18.793Z,17.20
2018-04-02T03:24:18.800Z,16.82
2018-04-02T03:25:18.801Z,17.01
2018-04-02T03:26:18.807Z,16.53
2018-04-02T03:27:18.815Z,16.35
2018-04-02T03:28:18.818Z,16.72
2018-04-02T03:29:18.822Z,18.43
2018-04-02T03:30:18.827Z,20.03
2018-04-02T03:31:18.833Z,22.02
2018-04-02T03:32:18.837Z,23.91
2018-04-02T03:33:18.841Z,24.85
2018-04-02T03:34:18.846Z,25.51
2018-04-02T03:35:18.851Z,26.08
2018-04-02T03:36:18.856Z,26.27
2018-04-02T03:37:18.859Z,27.12
2018-04-02T03:38:18.869Z,27.69
2018-04-02T03:39:18.871Z,27.31
2018-04-02T03:40:18.876Z,26.93
2018-04-02T03:41:18.881Z,26.65
2018-04-02T03:42:18.884Z,25.32
2018-04-02T03:43:18.889Z,24.48
2018-04-02T03:44:18.895Z,22.68
2018-04-02T03:45:18.898Z,22.20
2018-04-02T03:46:18.906Z,21.36
2018-04-02T03:47:18.909Z,20.41
2018-04-02T03:48:18.914Z,20.22
2018-04-02T03:49:18.918Z,20.13
2018-04-02T03:50:18.924Z,19.84
2018-04-02T03:51:18.930Z,20.13
2018-04-02T03:52:18.935Z,20.13
2018-04-02T03:53:18.940Z,20.03
2018-04-02T03:54:18.946Z,20.13
2018-04-02T03:55:18.953Z,19.94
2018-04-02T03:56:18.962Z,19.75
2018-04-02T03:57:18.959Z,19.75
2018-04-02T03:58:18.964Z,19.84
2018-04-02T03:59:18.971Z,20.13
2018-04-02T04:00:18.975Z,20.22
2018-04-02T04:01:18.979Z,18.99
2018-04-02T04:02:18.984Z,19.18
2018-04-02T04:03:18.988Z,19.46
2018-04-02T04:04:18.996Z,20.22
2018-04-02T04:05:18.998Z,20.22
2018-04-02T04:06:19.003Z,20.70
2018-04-02T04:07:19.010Z,20.32
2018-04-02T04:08:19.015Z,19.65
2018-04-02T04:09:19.024Z,20.03
2018-04-02T04:10:19.026Z,20.70
2018-04-02T04:11:19.029Z,20.51
2018-04-02T04:12:19.033Z,20.41
2018-04-02T04:13:19.036Z,19.18
2018-04-02T04:14:19.046Z,18.62
2018-04-02T04:15:19.049Z,19.27
2018-04-02T04:16:19.054Z,20.03
2018-04-02T04:17:19.062Z,19.84
2018-04-02T04:18:19.064Z,20.13
2018-04-02T04:19:19.069Z,20.13
2018-04-02T04:20:19.073Z,20.13
2018-04-02T04:21:19.079Z,20.41
2018-04-02T04:22:19.085Z,20.51
2018-04-02T04:23:19.088Z,20.03
2018-04-02T04:24:19.093Z,20.03
2018-04-02T04:25:19.098Z,20.13
2018-04-02T04:26:19.104Z,20.41
2018-04-02T04:27:19.109Z,20.70
2018-04-02T04:28:19.116Z,20.60
2018-04-02T04:29:19.117Z,20.79
2018-04-02T04:30:19.122Z,20.79
2018-04-02T04:31:21.283Z,20.22
2018-04-02T04:32:19.156Z,19.46
2018-04-02T04:33:19.137Z,17.58
2018-04-02T04:34:19.145Z,16.25
2018-04-02T04:35:19.214Z,16.72
2018-04-02T04:36:19.156Z,18.43
2018-04-02T04:37:19.160Z,18.99
2018-04-02T04:38:19.164Z,19.94
2018-04-02T04:39:19.168Z,18.24
2018-04-02T04:40:19.230Z,17.86
2018-04-02T04:41:19.179Z,18.52
2018-04-02T04:42:19.185Z,19.75
2018-04-02T04:43:19.189Z,20.79
2018-04-02T04:44:19.198Z,21.64
2018-04-02T04:45:19.200Z,21.83
2018-04-02T04:46:19.207Z,22.77
2018-04-02T04:47:19.238Z,23.34
2018-04-02T04:48:19.216Z,23.34
2018-04-02T04:49:19.224Z,23.82
2018-04-02T04:50:19.227Z,24.48
2018-04-02T04:51:19.230Z,23.53
2018-04-02T04:52:19.236Z,23.34
2018-04-02T04:53:19.242Z,21.64
2018-04-02T04:54:19.246Z,19.65
2018-04-02T04:55:19.253Z,18.80
2018-04-02T04:56:19.257Z,20.32
2018-04-02T04:57:19.264Z,21.64
2018-04-02T04:58:19.267Z,21.73
2018-04-02T04:59:19.275Z,21.08
2018-04-02T05:00:19.278Z,20.13
2018-04-02T05:01:19.284Z,19.65
2018-04-02T05:02:19.293Z,20.51
2018-04-02T05:03:19.295Z,20.60
2018-04-02T05:04:19.300Z,21.55
2018-04-02T05:05:19.305Z,22.20
2018-04-02T05:06:19.310Z,23.44
2018-04-02T05:07:19.316Z,23.91
2018-04-02T05:08:19.322Z,23.91
2018-04-02T05:09:19.324Z,23.44
2018-04-02T05:10:19.336Z,23.44
2018-04-02T05:11:19.337Z,22.58
2018-04-02T05:12:19.368Z,22.49
2018-04-02T05:13:19.346Z,21.45
2018-04-02T05:14:19.352Z,21.64
2018-04-02T05:15:19.382Z,22.58
2018-04-02T05:16:19.362Z,23.25
2018-04-02T05:17:19.367Z,23.72
2018-04-02T05:18:19.376Z,20.22
2018-04-02T05:19:19.379Z,17.58
2018-04-02T05:20:19.390Z,17.11
2018-04-02T05:21:19.393Z,19.29
2018-04-02T05:22:19.395Z,19.10
2018-04-02T05:23:19.401Z,19.10
2018-04-02T05:24:19.412Z,19.57
2018-04-02T05:25:19.412Z,18.81
2018-04-02T05:26:19.414Z,19.00
2018-04-02T05:27:19.420Z,18.15
2018-04-02T05:28:19.429Z,16.26
2018-04-02T05:29:19.430Z,14.75
2018-04-02T05:30:19.435Z,15.12
2018-04-02T05:31:19.442Z,16.83
2018-04-02T05:32:19.448Z,18.81
2018-04-02T05:33:19.453Z,19.57
2018-04-02T05:34:19.457Z,20.70
2018-04-02T05:35:19.463Z,22.69
2018-04-02T05:36:19.469Z,24.30
2018-04-02T05:37:19.475Z,25.05
2018-04-02T05:38:19.478Z,26.09
2018-04-02T05:39:19.486Z,25.05
2018-04-02T05:40:19.492Z,24.68
2018-04-02T05:41:19.496Z,25.05
2018-04-02T05:42:19.502Z,24.58
2018-04-02T05:43:19.506Z,22.31
2018-04-02T05:44:19.511Z,21.94
2018-04-02T05:45:19.549Z,21.75
2018-04-02T05:46:19.522Z,22.22
2018-04-02T05:47:19.529Z,21.75
2018-04-02T05:48:19.535Z,22.60
2018-04-02T05:49:19.539Z,24.87
2018-04-02T05:50:19.545Z,25.71
2018-04-02T05:51:19.551Z,26.09
2018-04-02T05:52:19.556Z,26.09
2018-04-02T05:53:19.561Z,25.81
2018-04-02T05:54:19.567Z,25.15
2018-04-02T05:55:19.573Z,24.30
2018-04-02T05:56:19.580Z,25.71
2018-04-02T05:57:19.585Z,26.47
2018-04-02T05:58:19.590Z,27.42
2018-04-02T05:59:19.596Z,27.70
2018-04-02T06:00:19.602Z,27.14
2018-04-02T06:01:19.606Z,25.15
2018-04-02T06:02:19.614Z,25.52
2018-04-02T06:03:19.617Z,27.14
2018-04-02T06:04:19.625Z,28.46
2018-04-02T06:05:19.629Z,28.74
2018-04-02T06:06:19.634Z,28.46
2018-04-02T06:07:19.640Z,27.98
2018-04-02T06:08:19.649Z,26.38
2018-04-02T06:09:19.655Z,24.87
2018-04-02T06:10:19.662Z,24.77
2018-04-02T06:11:19.662Z,25.15
2018-04-02T06:12:19.668Z,25.15
2018-04-02T06:13:19.680Z,26.09
2018-04-02T06:14:19.681Z,27.80
2018-04-02T06:15:19.691Z,28.84
2018-04-02T06:16:19.707Z,27.51
2018-04-02T06:17:19.698Z,25.52
2018-04-02T06:18:19.708Z,24.02
2018-04-02T06:19:19.709Z,23.73
2018-04-02T06:20:19.720Z,23.73
2018-04-02T06:21:19.720Z,24.02
2018-04-02T06:22:19.749Z,24.87
2018-04-02T06:23:19.738Z,25.34
2018-04-02T06:24:19.743Z,25.90
2018-04-02T06:25:19.748Z,25.71
2018-04-02T06:26:19.750Z,25.52
2018-04-02T06:27:19.767Z,24.96
2018-04-02T06:28:19.762Z,25.15
2018-04-02T06:29:19.768Z,25.15
2018-04-02T06:30:19.794Z,25.43
2018-04-02T06:31:19.780Z,23.65
2018-04-02T06:32:19.785Z,22.33
2018-04-02T06:33:19.791Z,23.46
2018-04-02T06:34:19.797Z,23.46
2018-04-02T06:35:19.804Z,24.03
2018-04-02T06:36:19.809Z,25.73
2018-04-02T06:37:19.814Z,26.58
2018-04-02T06:38:19.821Z,24.88
2018-04-02T06:39:19.833Z,21.09
2018-04-02T06:40:19.835Z,21.39
2018-04-02T06:41:19.840Z,22.43
2018-04-02T06:42:19.846Z,23.47
2018-04-02T06:43:19.853Z,23.75
2018-04-02T06:44:19.859Z,21.67
2018-04-02T06:45:19.863Z,20.73
2018-04-02T06:46:19.871Z,19.68
2018-04-02T06:47:19.877Z,18.27
2018-04-02T06:48:19.883Z,23.57
2018-04-02T06:49:19.891Z,24.70
2018-04-02T06:50:19.896Z,23.96
2018-04-02T06:51:19.904Z,24.71
2018-04-02T06:52:19.910Z,25.38
2018-04-02T06:53:19.916Z,25.57
2018-04-02T06:54:19.923Z,20.73
2018-04-02T06:55:19.929Z,18.65
2018-04-02T06:56:19.939Z,19.40
2018-04-02T06:57:19.948Z,21.11
2018-04-02T06:58:19.951Z,22.43
2018-04-02T06:59:19.961Z,19.87
2018-04-02T07:00:19.964Z,18.27
2018-04-02T07:01:19.969Z,16.94
2018-04-02T07:02:19.977Z,16.47
2018-04-02T07:03:19.987Z,18.65
2018-04-02T07:04:19.997Z,20.73
2018-04-02T07:05:19.996Z,21.77
2018-04-02T07:06:20.006Z,23.38
2018-04-02T07:07:20.010Z,24.70
2018-04-02T07:08:20.017Z,25.08
2018-04-02T07:09:20.026Z,21.95
2018-04-02T07:10:20.032Z,19.12
2018-04-02T07:11:20.037Z,17.50
2018-04-02T07:12:20.044Z,18.65
2018-04-02T07:13:20.049Z,20.35
2018-04-02T07:14:20.059Z,21.11
2018-04-02T07:15:20.064Z,23.00
2018-04-02T07:16:20.075Z,25.18
2018-04-02T07:17:20.102Z,25.27
2018-04-02T07:18:20.088Z,23.94
2018-04-02T07:19:20.091Z,25.18
2018-04-02T07:20:20.100Z,28.58
2018-04-02T07:21:20.105Z,30.57
2018-04-02T07:22:20.111Z,28.58
2018-04-02T07:23:20.120Z,27.16
2018-04-02T07:24:20.126Z,25.46
2018-04-02T07:25:20.133Z,24.89
2018-04-02T07:26:20.141Z,26.23
2018-04-02T07:27:20.151Z,27.46
2018-04-02T07:28:20.156Z,28.13
2018-04-02T07:29:20.162Z,30.77
2018-04-02T07:30:20.169Z,34.47
2018-04-02T07:31:20.180Z,34.96
2018-04-02T07:32:20.183Z,28.33
2018-04-02T07:33:20.190Z,25.20
2018-04-02T07:34:20.198Z,24.73
2018-04-02T07:35:20.209Z,23.49
2018-04-02T07:36:20.214Z,22.27
2018-04-02T07:37:20.250Z,22.64
2018-04-02T07:38:20.229Z,24.35
2018-04-02T07:39:20.233Z,27.47
2018-04-02T07:40:20.242Z,30.51
2018-04-02T07:41:20.247Z,31.26
2018-04-02T07:42:20.256Z,30.32
2018-04-02T07:43:20.264Z,29.46
2018-04-02T07:44:20.330Z,30.99
2018-04-02T07:45:20.278Z,32.89
2018-04-02T07:46:20.289Z,34.50
2018-04-02T07:47:20.295Z,32.42
2018-04-02T07:48:20.304Z,29.95
2018-04-02T07:49:20.308Z,29.00
2018-04-02T07:50:20.315Z,28.91
2018-04-02T07:51:20.323Z,30.24
2018-04-02T07:52:20.333Z,31.09
2018-04-02T07:53:20.339Z,35.74
2018-04-02T07:54:20.348Z,35.36
2018-04-02T07:55:20.355Z,31.77
2018-04-02T07:56:20.366Z,23.61
2018-04-02T07:57:20.370Z,21.15
2018-04-02T07:58:20.379Z,21.62
2018-04-02T07:59:20.389Z,22.57
2018-04-02T08:00:20.395Z,24.28
2018-04-02T08:01:20.403Z,25.04
2018-04-02T08:02:20.412Z,27.78
2018-04-02T08:03:20.419Z,24.28
2018-04-02T08:04:20.488Z,22.47
2018-04-02T08:05:20.438Z,24.47
2018-04-02T08:06:20.443Z,25.32
2018-04-02T08:07:20.454Z,23.52
2018-04-02T08:08:20.463Z,22.95
2018-04-02T08:09:20.470Z,23.99
2018-04-02T08:10:20.481Z,27.59
2018-04-02T08:11:20.489Z,28.92
2018-04-02T08:12:20.499Z,28.07
2018-04-02T08:13:20.508Z,24.94
2018-04-02T08:14:20.514Z,19.34
2018-04-02T08:15:20.533Z,16.97
2018-04-02T08:16:20.531Z,14.40
2018-04-02T08:17:20.540Z,13.37
2018-04-02T08:18:20.550Z,15.17
2018-04-02T08:19:20.559Z,17.92
2018-04-02T08:20:20.569Z,19.92
2018-04-02T08:21:20.588Z,21.81
2018-04-02T08:22:20.586Z,24.47
2018-04-02T08:23:20.594Z,23.80
2018-04-02T08:24:20.604Z,24.18
2018-04-02T08:25:20.668Z,23.52
2018-04-02T08:26:20.619Z,22.57
2018-04-02T08:27:20.630Z,17.93
2018-04-02T08:28:20.693Z,16.31
2018-04-02T08:29:20.647Z,15.47
2018-04-02T08:30:20.657Z,16.89
2018-04-02T08:31:20.666Z,19.35
2018-04-02T08:32:20.675Z,21.92
2018-04-02T08:33:20.688Z,23.82
2018-04-02T08:34:20.698Z,24.10
2018-04-02T08:35:20.706Z,21.73
2018-04-02T08:36:20.713Z,22.49
2018-04-02T08:37:20.723Z,23.44
2018-04-02T08:38:20.732Z,20.87
2018-04-02T08:39:20.743Z,18.22
2018-04-02T08:40:20.750Z,22.39
2018-04-02T08:41:20.760Z,25.24
2018-04-02T08:42:20.769Z,27.14
2018-04-02T08:43:20.780Z,27.23
2018-04-02T08:44:20.822Z,26.66
2018-04-02T08:45:20.802Z,24.67
2018-04-02T08:46:20.811Z,23.63
2018-04-02T08:47:20.821Z,24.01
2018-04-02T08:48:20.831Z,24.01
2018-04-02T08:49:20.838Z,24.01
2018-04-02T08:50:20.850Z,24.48
2018-04-02T08:51:20.858Z,24.48
2018-04-02T08:52:20.870Z,24.67
2018-04-02T08:53:20.877Z,25.14
2018-04-02T08:54:20.886Z,25.63
2018-04-02T08:55:20.898Z,25.92
2018-04-02T08:56:20.907Z,25.25
2018-04-02T08:57:20.917Z,25.54
2018-04-02T08:58:20.929Z,26.58
2018-04-02T08:59:20.938Z,28.57
2018-04-02T09:00:20.952Z,27.53
2018-04-02T09:01:20.957Z,27.91
2018-04-02T09:02:20.971Z,28.29
2018-04-02T09:03:20.990Z,26.77
2018-04-02T09:04:20.988Z,26.77
2018-04-02T09:05:20.999Z,27.53
2018-04-02T09:06:21.012Z,28.00
2018-04-02T09:07:21.021Z,27.81
2018-04-02T09:08:21.030Z,29.62
2018-04-02T09:09:21.039Z,31.13
2018-04-02T09:10:21.050Z,31.52
2018-04-02T09:11:21.061Z,32.28
2018-04-02T09:12:21.072Z,27.53
2018-04-02T09:13:21.082Z,25.44
2018-04-02T09:14:21.100Z,24.49
2018-04-02T09:15:21.106Z,25.25
2018-04-02T09:16:21.114Z,27.72
2018-04-02T09:17:21.125Z,28.00
2018-04-02T09:18:21.136Z,28.96
2018-04-02T09:19:21.148Z,29.92
2018-04-02T09:20:21.162Z,30.11
2018-04-02T09:21:21.170Z,30.30
2018-04-02T09:22:21.186Z,31.05
2018-04-02T09:23:21.191Z,29.92
2018-04-02T09:24:21.200Z,28.78
2018-04-02T09:25:21.213Z,28.59
2018-04-02T09:26:21.224Z,29.35
2018-04-02T09:27:21.243Z,29.53
2018-04-02T09:28:21.244Z,30.01
2018-04-02T09:29:21.254Z,30.20
2018-04-02T09:30:21.265Z,29.53
2018-04-02T09:31:21.279Z,28.88
2018-04-02T09:32:21.289Z,29.35
2018-04-02T09:33:21.301Z,30.22
2018-04-02T09:34:21.313Z,29.74
2018-04-02T09:35:21.321Z,30.22
2018-04-02T09:36:21.333Z,31.36
2018-04-02T09:37:21.344Z,32.31
2018-04-02T09:38:21.357Z,31.36
2018-04-02T09:39:21.368Z,31.26
2018-04-02T09:40:21.381Z,32.12
2018-04-02T09:41:21.389Z,32.40
2018-04-02T09:42:21.411Z,32.88
2018-04-02T09:43:21.414Z,34.02
2018-04-02T09:44:21.426Z,31.64
2018-04-02T09:45:21.437Z,33.26
2018-04-02T09:46:21.457Z,33.84
2018-04-02T09:47:21.459Z,34.51
2018-04-02T09:48:21.472Z,35.84
2018-04-02T09:49:21.482Z,35.17
2018-04-02T09:50:21.495Z,34.80
2018-04-02T09:51:21.508Z,32.23
2018-04-02T09:52:21.521Z,32.42
2018-04-02T09:53:21.533Z,33.65
2018-04-02T09:54:21.546Z,32.80
2018-04-02T09:55:21.556Z,31.77
2018-04-02T09:56:21.582Z,31.68
2018-04-02T09:57:21.579Z,31.20
2018-04-02T09:58:21.592Z,31.29
2018-04-02T09:59:21.686Z,32.62
2018-04-02T10:00:21.616Z,32.53
2018-04-02T10:01:21.628Z,31.98
2018-04-02T10:02:21.677Z,32.55
2018-04-02T10:03:21.653Z,32.66
2018-04-02T10:04:21.668Z,32.56
2018-04-02T10:05:21.681Z,32.28
2018-04-02T10:06:21.734Z,32.10
2018-04-02T10:07:21.706Z,35.44
2018-04-02T10:08:21.719Z,32.47
2018-04-02T10:09:21.732Z,29.99
2018-04-02T10:10:21.839Z,30.18
2018-04-02T10:11:21.759Z,28.66
2018-04-02T10:12:21.770Z,32.37
2018-04-02T10:13:21.783Z,34.09
2018-04-02T10:14:21.798Z,33.15
2018-04-02T10:15:21.813Z,30.77
2018-04-02T10:16:21.826Z,33.91
2018-04-02T10:17:21.844Z,32.01
2018-04-02T10:18:21.852Z,32.39
2018-04-02T10:19:21.873Z,32.39
2018-04-02T10:20:21.882Z,31.72
2018-04-02T10:21:21.894Z,33.07
2018-04-02T10:22:21.910Z,32.50
2018-04-02T10:23:21.926Z,32.40
2018-04-02T10:24:21.939Z,32.14
2018-04-02T10:25:21.951Z,32.14
2018-04-02T10:26:21.971Z,31.28
2018-04-02T10:27:21.981Z,32.32
2018-04-02T10:28:21.995Z,35.19
2018-04-02T10:29:22.011Z,32.04
2018-04-02T10:30:22.025Z,32.23
2018-04-02T10:31:22.043Z,30.80
2018-04-02T10:32:22.061Z,32.32
2018-04-02T10:33:22.071Z,32.98
2018-04-02T10:34:22.090Z,32.79
2018-04-02T10:35:22.107Z,35.17
2018-04-02T10:36:22.117Z,33.34
2018-04-02T10:37:22.131Z,33.34
2018-04-02T10:38:22.146Z,34.66
2018-04-02T10:39:22.161Z,34.85
2018-04-02T10:40:22.178Z,33.91
2018-04-02T10:41:22.197Z,32.98
2018-04-02T10:42:22.271Z,32.90
2018-04-02T10:43:22.271Z,32.71
2018-04-02T10:44:22.237Z,35.21
2018-04-02T10:45:22.257Z,32.63
2018-04-02T10:46:22.270Z,31.76
2018-04-02T10:47:22.283Z,34.31
2018-04-02T10:48:22.303Z,32.31
2018-04-02T10:49:22.316Z,32.50
2018-04-02T10:50:22.329Z,33.37
2018-04-02T10:51:22.347Z,32.14
2018-04-02T10:52:22.367Z,33.95
2018-04-02T10:53:22.375Z,32.81
2018-04-02T10:54:22.391Z,32.88
2018-04-02T10:55:22.408Z,32.69
2018-04-02T10:56:22.424Z,32.79
2018-04-02T10:57:22.440Z,31.28
2018-04-02T10:58:22.454Z,32.71
2018-04-02T10:59:22.470Z,33.28
2018-04-02T11:00:22.490Z,31.93
2018-04-02T11:01:22.553Z,33.76
2018-04-02T11:02:22.517Z,35.10
2018-04-02T11:03:22.532Z,35.10
2018-04-02T11:04:22.575Z,33.84
2018-04-02T11:05:22.564Z,33.93
2018-04-02T11:06:22.583Z,35.00
2018-04-02T11:07:22.596Z,33.95
2018-04-02T11:08:22.614Z,34.44
2018-04-02T11:09:22.629Z,34.16
2018-04-02T11:10:22.685Z,32.15
2018-04-02T11:11:22.663Z,33.50
2018-04-02T11:12:22.676Z,33.97
2018-04-02T11:13:22.693Z,32.73
2018-04-02T11:14:22.710Z,35.68
2018-04-02T11:15:22.724Z,38.09
2018-04-02T11:16:22.742Z,38.66
2018-04-02T11:17:22.758Z,35.82
2018-04-02T11:18:22.776Z,35.33
2018-04-02T11:19:22.792Z,32.45
2018-04-02T11:20:22.809Z,35.99
2018-04-02T11:21:22.826Z,34.17
2018-04-02T11:22:22.844Z,35.22
2018-04-02T11:23:22.859Z,35.87
2018-04-02T11:24:22.878Z,36.46
2018-04-02T11:25:22.891Z,35.13
2018-04-02T11:26:22.912Z,35.99
2018-04-02T11:27:22.928Z,36.27
2018-04-02T11:28:22.943Z,33.22
2018-04-02T11:29:22.962Z,33.89
2018-04-02T11:30:22.975Z,34.16
2018-04-02T11:31:22.993Z,36.44
2018-04-02T11:32:23.010Z,35.02
2018-04-02T11:33:23.025Z,34.33
2018-04-02T11:34:23.045Z,36.52
2018-04-02T11:35:23.065Z,38.91
2018-04-02T11:36:23.077Z,37.10
2018-04-02T11:37:23.097Z,36.43
2018-04-02T11:38:23.109Z,36.90
2018-04-02T11:39:23.136Z,38.24
2018-04-02T11:40:23.149Z,37.95
2018-04-02T11:41:23.160Z,39.29
2018-04-02T11:42:23.178Z,38.34
2018-04-02T11:43:23.194Z,37.19
2018-04-02T11:44:23.210Z,36.81
2018-04-02T11:45:23.233Z,37.74
2018-04-02T11:46:23.244Z,40.15
2018-04-02T11:47:23.261Z,39.10
2018-04-02T11:48:23.278Z,39.22
2018-04-02T11:49:23.306Z,37.30
2018-04-02T11:50:23.310Z,35.89
2018-04-02T11:51:23.328Z,34.82
2018-04-02T11:52:23.346Z,37.61
2018-04-02T11:53:23.363Z,36.27
2018-04-02T11:54:23.377Z,35.72
2018-04-02T11:55:23.395Z,34.28
2018-04-02T11:56:23.413Z,33.04
2018-04-02T11:57:23.433Z,33.87
2018-04-02T11:58:23.448Z,35.10
2018-04-02T11:59:23.465Z,35.17
2018-04-02T12:00:23.479Z,39.08
2018-04-02T12:01:23.495Z,39.94
2018-04-02T12:02:23.517Z,41.77
2018-04-02T12:03:23.529Z,36.25
2018-04-02T12:04:23.550Z,35.66
2018-04-02T12:05:23.564Z,33.95
2018-04-02T12:06:23.583Z,34.31
2018-04-02T12:07:23.599Z,38.03
2018-04-02T12:08:23.614Z,35.95
2018-04-02T12:09:23.635Z,35.19
2018-04-02T12:10:23.648Z,34.73
2018-04-02T12:11:23.668Z,33.78
2018-04-02T12:12:23.681Z,33.37
2018-04-02T12:13:23.696Z,33.00
2018-04-02T12:14:23.714Z,33.47
2018-04-02T12:15:23.732Z,33.87
2018-04-02T12:16:23.748Z,32.53
2018-04-02T12:17:23.765Z,33.01
2018-04-02T12:18:23.780Z,32.81
2018-04-02T12:19:23.797Z,32.60
2018-04-02T12:20:23.814Z,33.91
2018-04-02T12:21:23.831Z,35.53
2018-04-02T12:22:23.848Z,36.01
2018-04-02T12:23:23.865Z,36.96
2018-04-02T12:24:23.882Z,37.92
2018-04-02T12:25:23.897Z,36.22
2018-04-02T12:26:23.917Z,36.43
2018-04-02T12:27:23.933Z,37.00
2018-04-02T12:28:23.946Z,38.07
2018-04-02T12:29:23.964Z,37.49
2018-04-02T12:30:23.980Z,36.44
2018-04-02T12:31:24.008Z,35.30
2018-04-02T12:32:24.015Z,34.92
2018-04-02T12:33:24.029Z,35.00
2018-04-02T12:34:24.043Z,35.86
2018-04-02T12:35:24.064Z,36.24
2018-04-02T12:36:24.085Z,38.53
2018-04-02T12:37:24.099Z,37.00
2018-04-02T12:38:24.119Z,37.00
2018-04-02T12:39:24.130Z,37.00
2018-04-02T12:40:24.147Z,37.57
2018-04-02T12:41:24.162Z,39.19
2018-04-02T12:42:24.182Z,36.07
2018-04-02T12:43:24.198Z,36.52
2018-04-02T12:44:24.264Z,39.39
2018-04-02T12:45:24.230Z,37.30
2018-04-02T12:46:24.253Z,39.59
2018-04-02T12:47:24.265Z,36.44
2018-04-02T12:48:24.322Z,37.10
2018-04-02T12:49:24.299Z,36.05
2018-04-02T12:50:24.316Z,40.44
2018-04-02T12:51:24.328Z,38.24
2018-04-02T12:52:24.345Z,38.81